sensor_id;sensor_type;location;lat;lon;timestamp;pressure;altitude;pressure_sealevel;temperature;humidity
77159;BME280;66129;45.890;13.714;2023-04-06T00:01:35;101355.56;;;5.33;41.98
77159;BME280;66129;45.890;13.714;2023-04-06T00:04:01;101372.63;;;5.35;41.96
77159;BME280;66129;45.890;13.714;2023-04-06T00:06:26;101304.44;;;4.93;42.01
77159;BME280;66129;45.890;13.714;2023-04-06T00:08:52;101352.41;;;5.21;42.41
77159;BME280;66129;45.890;13.714;2023-04-06T00:11:18;101369.69;;;5.28;42.06
77159;BME280;66129;45.890;13.714;2023-04-06T00:13:44;101368.97;;;5.30;42.25
77159;BME280;66129;45.890;13.714;2023-04-06T00:16:10;101339.53;;;5.18;42.00
77159;BME280;66129;45.890;13.714;2023-04-06T00:18:35;101302.44;;;4.88;42.28
77159;BME280;66129;45.890;13.714;2023-04-06T00:21:01;101362.06;;;5.28;42.46
77159;BME280;66129;45.890;13.714;2023-04-06T00:23:27;101323.38;;;5.00;43.00
77159;BME280;66129;45.890;13.714;2023-04-06T00:25:52;101292.94;;;4.84;42.10
77159;BME280;66129;45.890;13.714;2023-04-06T00:28:18;101340.13;;;5.12;42.64
77159;BME280;66129;45.890;13.714;2023-04-06T00:30:50;101338.94;;;5.06;42.86
77159;BME280;66129;45.890;13.714;2023-04-06T00:33:17;101360.81;;;5.20;42.39
77159;BME280;66129;45.890;13.714;2023-04-06T00:35:42;101341.91;;;5.15;42.59
77159;BME280;66129;45.890;13.714;2023-04-06T00:38:08;101360.13;;;5.22;42.35
77159;BME280;66129;45.890;13.714;2023-04-06T00:40:33;101345.50;;;5.18;42.05
77159;BME280;66129;45.890;13.714;2023-04-06T00:43:00;101282.06;;;4.86;41.53
77159;BME280;66129;45.890;13.714;2023-04-06T00:45:26;101353.06;;;5.34;41.62
77159;BME280;66129;45.890;13.714;2023-04-06T00:47:51;101349.03;;;5.38;41.23
77159;BME280;66129;45.890;13.714;2023-04-06T00:50:17;101339.34;;;5.31;41.53
77159;BME280;66129;45.890;13.714;2023-04-06T00:52:42;101329.63;;;5.22;41.77
77159;BME280;66129;45.890;13.714;2023-04-06T00:55:08;101334.56;;;5.19;42.22
77159;BME280;66129;45.890;13.714;2023-04-06T00:57:34;101328.72;;;5.22;41.56
77159;BME280;66129;45.890;13.714;2023-04-06T00:59:59;101326.13;;;5.20;41.17
77159;BME280;66129;45.890;13.714;2023-04-06T01:02:25;101346.50;;;5.38;41.13
77159;BME280;66129;45.890;13.714;2023-04-06T01:04:52;101348.38;;;5.42;41.00
77159;BME280;66129;45.890;13.714;2023-04-06T01:07:18;101337.78;;;5.33;41.42
77159;BME280;66129;45.890;13.714;2023-04-06T01:09:43;101343.16;;;5.39;41.24
77159;BME280;66129;45.890;13.714;2023-04-06T01:12:09;101341.25;;;5.35;41.36
77159;BME280;66129;45.890;13.714;2023-04-06T01:14:34;101353.88;;;5.33;41.41
77159;BME280;66129;45.890;13.714;2023-04-06T01:17:00;101323.97;;;5.28;41.24
77159;BME280;66129;45.890;13.714;2023-04-06T01:19:26;101334.84;;;5.43;40.62
77159;BME280;66129;45.890;13.714;2023-04-06T01:21:51;101325.22;;;5.36;40.87
77159;BME280;66129;45.890;13.714;2023-04-06T01:24:18;101313.34;;;5.19;41.05
77159;BME280;66129;45.890;13.714;2023-04-06T01:26:44;101333.69;;;5.36;40.85
77159;BME280;66129;45.890;13.714;2023-04-06T01:29:10;101345.91;;;5.43;40.72
77159;BME280;66129;45.890;13.714;2023-04-06T01:31:35;101335.53;;;5.39;40.86
77159;BME280;66129;45.890;13.714;2023-04-06T01:34:01;101344.31;;;5.45;40.63
77159;BME280;66129;45.890;13.714;2023-04-06T01:36:26;101304.31;;;5.25;40.77
77159;BME280;66129;45.890;13.714;2023-04-06T01:38:52;101312.06;;;5.27;40.74
77159;BME280;66129;45.890;13.714;2023-04-06T01:41:17;101312.84;;;5.26;41.23
77159;BME280;66129;45.890;13.714;2023-04-06T01:43:44;101282.31;;;5.08;41.04
77159;BME280;66129;45.890;13.714;2023-04-06T01:46:10;101283.22;;;5.09;40.72
77159;BME280;66129;45.890;13.714;2023-04-06T01:48:36;101333.00;;;5.39;40.79
77159;BME280;66129;45.890;13.714;2023-04-06T01:51:01;101278.13;;;5.09;40.46
77159;BME280;66129;45.890;13.714;2023-04-06T01:53:27;101316.25;;;5.26;40.96
77159;BME280;66129;45.890;13.714;2023-04-06T01:55:52;101290.69;;;5.06;40.87
77159;BME280;66129;45.890;13.714;2023-04-06T01:58:18;101286.31;;;5.03;40.98
77159;BME280;66129;45.890;13.714;2023-04-06T02:00:43;101280.22;;;5.00;41.23
77159;BME280;66129;45.890;13.714;2023-04-06T02:03:09;101311.09;;;5.25;40.51
77159;BME280;66129;45.890;13.714;2023-04-06T02:05:34;101309.78;;;5.15;41.51
77159;BME280;66129;45.890;13.714;2023-04-06T02:08:06;101326.69;;;5.15;41.81
77159;BME280;66129;45.890;13.714;2023-04-06T02:10:33;101320.53;;;5.10;41.84
77159;BME280;66129;45.890;13.714;2023-04-06T02:12:59;101311.53;;;5.00;41.60
77159;BME280;66129;45.890;13.714;2023-04-06T02:15:25;101305.28;;;4.94;41.93
77159;BME280;66129;45.890;13.714;2023-04-06T02:17:51;101318.16;;;4.97;42.00
77159;BME280;66129;45.890;13.714;2023-04-06T02:20:16;101321.72;;;5.00;41.92
77159;BME280;66129;45.890;13.714;2023-04-06T02:22:42;101316.81;;;4.87;42.22
77159;BME280;66129;45.890;13.714;2023-04-06T02:25:08;101298.50;;;4.77;42.50
77159;BME280;66129;45.890;13.714;2023-04-06T02:27:34;101304.38;;;4.76;42.03
77159;BME280;66129;45.890;13.714;2023-04-06T02:29:59;101301.44;;;4.68;42.42
77159;BME280;66129;45.890;13.714;2023-04-06T02:32:25;101255.38;;;4.45;42.14
77159;BME280;66129;45.890;13.714;2023-04-06T02:34:51;101323.72;;;4.90;41.76
77159;BME280;66129;45.890;13.714;2023-04-06T02:37:17;101313.09;;;4.81;42.35
77159;BME280;66129;45.890;13.714;2023-04-06T02:39:42;101304.59;;;4.80;42.43
77159;BME280;66129;45.890;13.714;2023-04-06T02:42:08;101306.34;;;4.81;42.44
77159;BME280;66129;45.890;13.714;2023-04-06T02:44:34;101279.56;;;4.54;42.54
77159;BME280;66129;45.890;13.714;2023-04-06T02:47:00;101270.44;;;4.58;42.89
77159;BME280;66129;45.890;13.714;2023-04-06T02:49:25;101287.66;;;4.63;42.07
77159;BME280;66129;45.890;13.714;2023-04-06T02:51:51;101286.13;;;4.67;41.76
77159;BME280;66129;45.890;13.714;2023-04-06T02:54:16;101303.88;;;4.83;41.95
77159;BME280;66129;45.890;13.714;2023-04-06T02:56:43;101238.72;;;4.34;42.03
77159;BME280;66129;45.890;13.714;2023-04-06T02:59:08;101245.72;;;4.38;41.92
77159;BME280;66129;45.890;13.714;2023-04-06T03:01:34;101313.97;;;4.81;41.83
77159;BME280;66129;45.890;13.714;2023-04-06T03:03:59;101295.81;;;4.74;41.31
77159;BME280;66129;45.890;13.714;2023-04-06T03:06:25;101221.59;;;4.30;42.08
77159;BME280;66129;45.890;13.714;2023-04-06T03:08:51;101313.88;;;4.80;41.68
77159;BME280;66129;45.890;13.714;2023-04-06T03:11:17;101304.53;;;4.79;41.94
77159;BME280;66129;45.890;13.714;2023-04-06T03:13:42;101310.53;;;4.81;41.46
77159;BME280;66129;45.890;13.714;2023-04-06T03:16:08;101313.88;;;4.80;41.55
77159;BME280;66129;45.890;13.714;2023-04-06T03:18:33;101249.84;;;4.36;41.91
77159;BME280;66129;45.890;13.714;2023-04-06T03:20:59;101312.94;;;4.62;42.32
77159;BME280;66129;45.890;13.714;2023-04-06T03:23:25;101315.59;;;4.63;42.60
77159;BME280;66129;45.890;13.714;2023-04-06T03:25:51;101296.22;;;4.49;42.60
77159;BME280;66129;45.890;13.714;2023-04-06T03:28:16;101288.22;;;4.42;42.44
77159;BME280;66129;45.890;13.714;2023-04-06T03:30:42;101322.94;;;4.59;42.51
77159;BME280;66129;45.890;13.714;2023-04-06T03:33:08;101325.16;;;4.53;42.87
77159;BME280;66129;45.890;13.714;2023-04-06T03:35:33;101263.22;;;4.18;42.77
77159;BME280;66129;45.890;13.714;2023-04-06T03:37:59;101317.72;;;4.40;43.41
77159;BME280;66129;45.890;13.714;2023-04-06T03:40:24;101319.69;;;4.45;42.47
77159;BME280;66129;45.890;13.714;2023-04-06T03:42:50;101335.72;;;4.44;42.79
77159;BME280;66129;45.890;13.714;2023-04-06T03:45:16;101324.22;;;4.35;43.00
77159;BME280;66129;45.890;13.714;2023-04-06T03:47:41;101327.59;;;4.35;43.84
77159;BME280;66129;45.890;13.714;2023-04-06T03:50:07;101334.81;;;4.28;44.04
77159;BME280;66129;45.890;13.714;2023-04-06T03:52:34;101333.41;;;4.17;44.64
77159;BME280;66129;45.890;13.714;2023-04-06T03:54:59;101336.72;;;4.16;43.65
77159;BME280;66129;45.890;13.714;2023-04-06T03:57:25;101328.16;;;4.14;43.93
77159;BME280;66129;45.890;13.714;2023-04-06T03:59:50;101331.16;;;4.07;44.16
77159;BME280;66129;45.890;13.714;2023-04-06T04:02:15;101307.75;;;3.97;44.50
77159;BME280;66129;45.890;13.714;2023-04-06T04:04:41;101263.63;;;3.63;44.39
77159;BME280;66129;45.890;13.714;2023-04-06T04:07:06;101337.00;;;4.06;43.89
77159;BME280;66129;45.890;13.714;2023-04-06T04:09:32;101304.47;;;3.83;43.76
77159;BME280;66129;45.890;13.714;2023-04-06T04:11:57;101324.00;;;4.00;43.29
77159;BME280;66129;45.890;13.714;2023-04-06T04:14:23;101280.56;;;3.64;45.25
77159;BME280;66129;45.890;13.714;2023-04-06T04:16:48;101335.75;;;3.84;45.07
77159;BME280;66129;45.890;13.714;2023-04-06T04:19:14;101341.53;;;3.81;46.12
77159;BME280;66129;45.890;13.714;2023-04-06T04:21:45;101333.78;;;3.64;46.27
77159;BME280;66129;45.890;13.714;2023-04-06T04:24:11;101350.75;;;3.65;46.53
77159;BME280;66129;45.890;13.714;2023-04-06T04:26:38;101354.59;;;3.58;45.79
77159;BME280;66129;45.890;13.714;2023-04-06T04:29:04;101325.78;;;3.28;49.55
77159;BME280;66129;45.890;13.714;2023-04-06T04:31:29;101359.31;;;3.09;50.90
77159;BME280;66129;45.890;13.714;2023-04-06T04:33:55;101342.31;;;2.65;53.59
77159;BME280;66129;45.890;13.714;2023-04-06T04:36:21;101350.25;;;2.43;52.85
77159;BME280;66129;45.890;13.714;2023-04-06T04:38:46;101325.38;;;2.09;54.74
77159;BME280;66129;45.890;13.714;2023-04-06T04:41:12;101357.72;;;2.15;56.97
77159;BME280;66129;45.890;13.714;2023-04-06T04:43:37;101371.25;;;2.02;56.56
77159;BME280;66129;45.890;13.714;2023-04-06T04:46:04;101324.53;;;1.70;57.63
77159;BME280;66129;45.890;13.714;2023-04-06T04:48:30;101366.22;;;1.89;57.29
77159;BME280;66129;45.890;13.714;2023-04-06T04:50:55;101380.00;;;1.81;57.88
77159;BME280;66129;45.890;13.714;2023-04-06T04:53:21;101354.09;;;1.58;59.17
77159;BME280;66129;45.890;13.714;2023-04-06T04:55:47;101298.09;;;1.13;60.40
77159;BME280;66129;45.890;13.714;2023-04-06T04:58:12;101374.78;;;1.65;58.51
77159;BME280;66129;45.890;13.714;2023-04-06T05:00:42;101381.97;;;1.72;59.43
77159;BME280;66129;45.890;13.714;2023-04-06T05:03:08;101349.88;;;1.58;59.54
77159;BME280;66129;45.890;13.714;2023-04-06T05:05:34;101361.75;;;1.59;61.19
77159;BME280;66129;45.890;13.714;2023-04-06T05:07:59;101352.78;;;1.51;60.97
77159;BME280;66129;45.890;13.714;2023-04-06T05:10:25;101374.28;;;1.71;59.78
77159;BME280;66129;45.890;13.714;2023-04-06T05:12:51;101366.69;;;1.71;61.52
77159;BME280;66129;45.890;13.714;2023-04-06T05:15:17;101379.81;;;2.04;60.24
77159;BME280;66129;45.890;13.714;2023-04-06T05:17:42;101379.69;;;2.56;59.74
77159;BME280;66129;45.890;13.714;2023-04-06T05:20:08;101353.47;;;3.39;56.13
77159;BME280;66129;45.890;13.714;2023-04-06T05:22:34;101350.22;;;4.31;52.41
77159;BME280;66129;45.890;13.714;2023-04-06T05:25:01;101363.50;;;4.89;51.97
77159;BME280;66129;45.890;13.714;2023-04-06T05:27:27;101376.09;;;5.53;49.49
77159;BME280;66129;45.890;13.714;2023-04-06T05:29:53;101374.41;;;5.53;49.16
77159;BME280;66129;45.890;13.714;2023-04-06T05:32:18;101382.28;;;4.93;50.90
77159;BME280;66129;45.890;13.714;2023-04-06T05:34:48;101380.94;;;4.51;51.76
77159;BME280;66129;45.890;13.714;2023-04-06T05:37:15;101355.94;;;4.59;52.11
77159;BME280;66129;45.890;13.714;2023-04-06T05:39:40;101374.84;;;5.29;49.71
77159;BME280;66129;45.890;13.714;2023-04-06T05:42:06;101293.69;;;5.67;47.73
77159;BME280;66129;45.890;13.714;2023-04-06T05:44:32;101380.41;;;6.79;46.43
77159;BME280;66129;45.890;13.714;2023-04-06T05:46:57;101354.53;;;7.28;44.97
77159;BME280;66129;45.890;13.714;2023-04-06T05:49:23;101382.72;;;7.92;45.13
77159;BME280;66129;45.890;13.714;2023-04-06T05:51:48;101360.94;;;8.44;43.19
77159;BME280;66129;45.890;13.714;2023-04-06T05:54:14;101369.34;;;8.64;43.26
77159;BME280;66129;45.890;13.714;2023-04-06T05:56:39;101370.44;;;9.17;41.73
77159;BME280;66129;45.890;13.714;2023-04-06T05:59:05;101369.28;;;9.32;43.09
77159;BME280;66129;45.890;13.714;2023-04-06T06:01:32;101384.75;;;9.35;41.74
77159;BME280;66129;45.890;13.714;2023-04-06T06:03:57;101383.13;;;9.64;41.55
77159;BME280;66129;45.890;13.714;2023-04-06T06:06:27;101337.88;;;9.11;43.90
77159;BME280;66129;45.890;13.714;2023-04-06T06:08:52;101321.16;;;9.72;40.93
77159;BME280;66129;45.890;13.714;2023-04-06T06:11:18;101297.34;;;9.76;33.20
77159;BME280;66129;45.890;13.714;2023-04-06T06:13:43;101353.41;;;10.48;31.38
77159;BME280;66129;45.890;13.714;2023-04-06T06:16:09;101349.13;;;11.07;31.49
77159;BME280;66129;45.890;13.714;2023-04-06T06:18:35;101378.06;;;11.65;29.71
77159;BME280;66129;45.890;13.714;2023-04-06T06:21:02;101316.47;;;11.34;30.05
77159;BME280;66129;45.890;13.714;2023-04-06T06:23:27;101368.63;;;11.99;29.25
77159;BME280;66129;45.890;13.714;2023-04-06T06:25:53;101327.09;;;11.81;28.82
77159;BME280;66129;45.890;13.714;2023-04-06T06:28:18;101286.53;;;12.05;28.65
77159;BME280;66129;45.890;13.714;2023-04-06T06:30:44;101330.91;;;12.76;28.22
77159;BME280;66129;45.890;13.714;2023-04-06T06:33:10;101374.44;;;13.07;28.06
77159;BME280;66129;45.890;13.714;2023-04-06T06:35:36;101336.72;;;13.09;28.28
77159;BME280;66129;45.890;13.714;2023-04-06T06:38:01;101323.63;;;13.44;25.81
77159;BME280;66129;45.890;13.714;2023-04-06T06:40:27;101318.16;;;13.27;26.50
77159;BME280;66129;45.890;13.714;2023-04-06T06:42:53;101322.00;;;13.01;25.71
77159;BME280;66129;45.890;13.714;2023-04-06T06:45:18;101380.22;;;13.92;25.88
77159;BME280;66129;45.890;13.714;2023-04-06T06:47:45;101378.69;;;14.03;25.44
77159;BME280;66129;45.890;13.714;2023-04-06T06:50:11;101310.31;;;14.26;24.58
77159;BME280;66129;45.890;13.714;2023-04-06T06:52:36;101310.34;;;14.29;25.25
77159;BME280;66129;45.890;13.714;2023-04-06T06:55:02;101340.09;;;14.69;24.43
77159;BME280;66129;45.890;13.714;2023-04-06T06:57:28;101355.56;;;14.66;24.21
77159;BME280;66129;45.890;13.714;2023-04-06T06:59:53;101373.50;;;14.57;25.38
77159;BME280;66129;45.890;13.714;2023-04-06T07:02:18;101356.09;;;15.11;23.64
77159;BME280;66129;45.890;13.714;2023-04-06T07:04:47;101369.06;;;15.19;24.21
77159;BME280;66129;45.890;13.714;2023-04-06T07:07:13;101333.63;;;15.04;23.06
77159;BME280;66129;45.890;13.714;2023-04-06T07:09:39;101336.97;;;14.94;24.51
77159;BME280;66129;45.890;13.714;2023-04-06T07:12:04;101354.78;;;14.73;24.63
77159;BME280;66129;45.890;13.714;2023-04-06T07:14:30;101372.41;;;15.09;22.86
77159;BME280;66129;45.890;13.714;2023-04-06T07:16:55;101369.38;;;14.68;25.48
77159;BME280;66129;45.890;13.714;2023-04-06T07:19:21;101363.53;;;14.83;24.55
77159;BME280;66129;45.890;13.714;2023-04-06T07:21:47;101364.09;;;15.35;24.30
77159;BME280;66129;45.890;13.714;2023-04-06T07:24:14;101330.50;;;15.29;23.49
77159;BME280;66129;45.890;13.714;2023-04-06T07:26:39;101351.31;;;15.47;24.24
77159;BME280;66129;45.890;13.714;2023-04-06T07:29:05;101362.16;;;16.07;23.69
77159;BME280;66129;45.890;13.714;2023-04-06T07:31:31;101291.50;;;16.17;21.63
77159;BME280;66129;45.890;13.714;2023-04-06T07:33:56;101369.34;;;16.47;21.92
77159;BME280;66129;45.890;13.714;2023-04-06T07:36:22;101308.47;;;14.87;22.79
77159;BME280;66129;45.890;13.714;2023-04-06T07:38:47;101315.94;;;15.39;23.20
77159;BME280;66129;45.890;13.714;2023-04-06T07:41:14;101355.69;;;16.77;23.30
77159;BME280;66129;45.890;13.714;2023-04-06T07:43:39;101328.88;;;16.74;21.86
77159;BME280;66129;45.890;13.714;2023-04-06T07:46:05;101335.53;;;16.26;23.95
77159;BME280;66129;45.890;13.714;2023-04-06T07:48:31;101356.31;;;16.36;23.20
77159;BME280;66129;45.890;13.714;2023-04-06T07:51:04;101335.69;;;16.50;22.31
77159;BME280;66129;45.890;13.714;2023-04-06T07:53:30;101366.16;;;17.22;20.63
77159;BME280;66129;45.890;13.714;2023-04-06T07:55:57;101366.25;;;18.03;21.41
77159;BME280;66129;45.890;13.714;2023-04-06T07:58:23;101343.69;;;18.45;19.66
77159;BME280;66129;45.890;13.714;2023-04-06T08:00:48;101364.50;;;18.20;20.18
77159;BME280;66129;45.890;13.714;2023-04-06T08:03:14;101348.94;;;18.03;20.50
77159;BME280;66129;45.890;13.714;2023-04-06T08:05:41;101351.34;;;18.84;19.77
77159;BME280;66129;45.890;13.714;2023-04-06T08:08:07;101321.19;;;18.49;19.17
77159;BME280;66129;45.890;13.714;2023-04-06T08:10:33;101335.75;;;18.78;19.91
77159;BME280;66129;45.890;13.714;2023-04-06T08:13:00;101348.72;;;18.89;18.55
77159;BME280;66129;45.890;13.714;2023-04-06T08:15:25;101355.84;;;18.36;19.31
77159;BME280;66129;45.890;13.714;2023-04-06T08:17:51;101334.63;;;19.31;19.47
77159;BME280;66129;45.890;13.714;2023-04-06T08:20:17;101335.53;;;19.27;19.78
77159;BME280;66129;45.890;13.714;2023-04-06T08:22:43;101352.41;;;17.74;19.81
77159;BME280;66129;45.890;13.714;2023-04-06T08:25:08;101332.56;;;17.37;20.43
77159;BME280;66129;45.890;13.714;2023-04-06T08:27:34;101347.25;;;17.68;20.44
77159;BME280;66129;45.890;13.714;2023-04-06T08:29:59;101336.69;;;18.70;19.94
77159;BME280;66129;45.890;13.714;2023-04-06T08:32:25;101327.38;;;17.81;18.98
77159;BME280;66129;45.890;13.714;2023-04-06T08:34:53;101350.69;;;17.69;20.16
77159;BME280;66129;45.890;13.714;2023-04-06T08:37:19;101336.88;;;17.73;19.37
77159;BME280;66129;45.890;13.714;2023-04-06T08:39:45;101319.53;;;18.12;18.85
77159;BME280;66129;45.890;13.714;2023-04-06T08:42:18;101320.28;;;18.59;19.51
77159;BME280;66129;45.890;13.714;2023-04-06T08:44:44;101316.69;;;18.85;19.92
77159;BME280;66129;45.890;13.714;2023-04-06T08:47:11;101327.81;;;19.08;19.54
77159;BME280;66129;45.890;13.714;2023-04-06T08:49:37;101334.78;;;19.04;19.59
77159;BME280;66129;45.890;13.714;2023-04-06T08:52:06;101299.06;;;19.35;17.28
77159;BME280;66129;45.890;13.714;2023-04-06T08:54:32;101321.97;;;19.93;18.42
77159;BME280;66129;45.890;13.714;2023-04-06T08:56:58;101319.59;;;19.69;17.00
77159;BME280;66129;45.890;13.714;2023-04-06T08:59:25;101305.78;;;19.61;17.79
77159;BME280;66129;45.890;13.714;2023-04-06T09:01:51;101312.72;;;19.62;18.09
77159;BME280;66129;45.890;13.714;2023-04-06T09:04:16;101313.13;;;18.99;18.32
77159;BME280;66129;45.890;13.714;2023-04-06T09:06:42;101302.72;;;19.04;20.94
77159;BME280;66129;45.890;13.714;2023-04-06T09:09:08;101307.03;;;20.17;17.96
77159;BME280;66129;45.890;13.714;2023-04-06T09:11:50;101305.63;;;19.79;17.87
77159;BME280;66129;45.890;13.714;2023-04-06T09:14:17;101298.16;;;19.39;18.40
77159;BME280;66129;45.890;13.714;2023-04-06T09:16:44;101308.41;;;19.63;19.00
77159;BME280;66129;45.890;13.714;2023-04-06T09:19:11;101268.50;;;19.62;18.99
77159;BME280;66129;45.890;13.714;2023-04-06T09:21:37;101300.72;;;20.38;20.58
77159;BME280;66129;45.890;13.714;2023-04-06T09:24:07;101292.78;;;20.48;20.17
77159;BME280;66129;45.890;13.714;2023-04-06T09:26:32;101296.34;;;20.38;19.30
77159;BME280;66129;45.890;13.714;2023-04-06T09:29:09;101280.06;;;20.21;19.23
77159;BME280;66129;45.890;13.714;2023-04-06T09:31:34;101279.25;;;20.15;19.29
77159;BME280;66129;45.890;13.714;2023-04-06T09:34:01;101284.44;;;20.18;19.20
77159;BME280;66129;45.890;13.714;2023-04-06T09:36:31;101269.56;;;19.43;18.45
77159;BME280;66129;45.890;13.714;2023-04-06T09:38:59;101274.75;;;19.43;19.30
77159;BME280;66129;45.890;13.714;2023-04-06T09:41:32;101280.56;;;19.71;22.30
77159;BME280;66129;45.890;13.714;2023-04-06T09:44:16;101265.78;;;19.76;21.02
77159;BME280;66129;45.890;13.714;2023-04-06T09:46:44;101270.44;;;19.42;19.43
77159;BME280;66129;45.890;13.714;2023-04-06T09:49:12;101267.28;;;20.71;18.79
77159;BME280;66129;45.890;13.714;2023-04-06T09:51:40;101257.03;;;20.58;19.32
77159;BME280;66129;45.890;13.714;2023-04-06T09:54:06;101258.00;;;19.74;21.25
77159;BME280;66129;45.890;13.714;2023-04-06T09:56:55;101259.69;;;19.77;20.09
77159;BME280;66129;45.890;13.714;2023-04-06T09:59:50;101254.78;;;19.48;20.53
77159;BME280;66129;45.890;13.714;2023-04-06T10:07:57;101239.47;;;19.06;21.62
77159;BME280;66129;45.890;13.714;2023-04-06T10:10:25;101229.25;;;18.78;21.05
77159;BME280;66129;45.890;13.714;2023-04-06T10:12:51;101206.53;;;19.14;21.90
77159;BME280;66129;45.890;13.714;2023-04-06T10:15:18;101212.13;;;18.52;20.14
77159;BME280;66129;45.890;13.714;2023-04-06T10:17:44;101211.78;;;19.02;21.05
77159;BME280;66129;45.890;13.714;2023-04-06T10:20:22;101234.75;;;19.53;22.49
77159;BME280;66129;45.890;13.714;2023-04-06T10:22:57;101200.53;;;19.92;19.90
77159;BME280;66129;45.890;13.714;2023-04-06T10:25:32;101214.06;;;20.24;20.40
77159;BME280;66129;45.890;13.714;2023-04-06T10:28:08;101207.41;;;20.67;22.00
77159;BME280;66129;45.890;13.714;2023-04-06T10:30:35;101207.63;;;20.53;19.92
77159;BME280;66129;45.890;13.714;2023-04-06T10:33:17;101224.41;;;20.28;19.79
77159;BME280;66129;45.890;13.714;2023-04-06T10:35:43;101198.19;;;20.42;19.62
77159;BME280;66129;45.890;13.714;2023-04-06T10:38:09;101186.84;;;20.47;19.07
77159;BME280;66129;45.890;13.714;2023-04-06T10:40:39;101191.00;;;20.60;21.43
77159;BME280;66129;45.890;13.714;2023-04-06T10:43:13;101187.13;;;20.28;21.37
77159;BME280;66129;45.890;13.714;2023-04-06T10:45:40;101206.16;;;20.31;20.28
77159;BME280;66129;45.890;13.714;2023-04-06T10:48:13;101219.41;;;20.12;21.05
77159;BME280;66129;45.890;13.714;2023-04-06T10:50:39;101183.91;;;20.07;21.41
77159;BME280;66129;45.890;13.714;2023-04-06T10:53:05;101190.56;;;20.92;21.61
77159;BME280;66129;45.890;13.714;2023-04-06T10:55:31;101191.75;;;20.68;20.59
77159;BME280;66129;45.890;13.714;2023-04-06T10:57:57;101197.03;;;19.99;22.29
77159;BME280;66129;45.890;13.714;2023-04-06T11:00:23;101196.16;;;19.97;21.46
77159;BME280;66129;45.890;13.714;2023-04-06T11:02:48;101186.41;;;20.14;22.23
77159;BME280;66129;45.890;13.714;2023-04-06T11:05:14;101163.00;;;20.73;20.54
77159;BME280;66129;45.890;13.714;2023-04-06T11:07:40;101187.25;;;20.78;17.97
77159;BME280;66129;45.890;13.714;2023-04-06T11:10:07;101179.47;;;20.76;19.82
77159;BME280;66129;45.890;13.714;2023-04-06T11:12:33;101177.13;;;19.92;20.44
77159;BME280;66129;45.890;13.714;2023-04-06T11:15:03;101166.00;;;19.80;20.56
77159;BME280;66129;45.890;13.714;2023-04-06T11:17:34;101155.28;;;20.07;22.33
77159;BME280;66129;45.890;13.714;2023-04-06T11:20:01;101164.06;;;19.95;21.39
77159;BME280;66129;45.890;13.714;2023-04-06T11:22:27;101149.31;;;19.96;21.93
77159;BME280;66129;45.890;13.714;2023-04-06T11:25:04;101150.13;;;20.05;21.00
77159;BME280;66129;45.890;13.714;2023-04-06T11:27:30;101156.72;;;20.28;21.51
77159;BME280;66129;45.890;13.714;2023-04-06T11:29:58;101153.78;;;20.51;21.30
77159;BME280;66129;45.890;13.714;2023-04-06T11:32:24;101129.03;;;20.23;18.87
77159;BME280;66129;45.890;13.714;2023-04-06T11:34:50;101134.16;;;20.86;22.20
77159;BME280;66129;45.890;13.714;2023-04-06T11:37:15;101143.63;;;20.36;20.81
77159;BME280;66129;45.890;13.714;2023-04-06T11:39:53;101127.94;;;20.37;21.87
77159;BME280;66129;45.890;13.714;2023-04-06T11:42:23;101136.34;;;19.91;21.73
77159;BME280;66129;45.890;13.714;2023-04-06T11:44:56;101079.34;;;19.72;19.68
77159;BME280;66129;45.890;13.714;2023-04-06T11:49:55;101080.16;;;19.78;20.73
77159;BME280;66129;45.890;13.714;2023-04-06T11:52:27;101114.03;;;19.74;21.45
77159;BME280;66129;45.890;13.714;2023-04-06T11:54:53;101126.75;;;19.96;20.89
77159;BME280;66129;45.890;13.714;2023-04-06T11:57:21;101137.16;;;19.99;21.26
77159;BME280;66129;45.890;13.714;2023-04-06T11:59:48;101123.50;;;19.78;21.01
77159;BME280;66129;45.890;13.714;2023-04-06T12:02:14;101122.66;;;19.77;23.94
77159;BME280;66129;45.890;13.714;2023-04-06T12:04:40;101115.22;;;19.46;23.15
77159;BME280;66129;45.890;13.714;2023-04-06T12:07:05;101056.66;;;19.06;23.82
77159;BME280;66129;45.890;13.714;2023-04-06T12:09:31;101122.97;;;19.52;23.57
77159;BME280;66129;45.890;13.714;2023-04-06T12:11:57;101119.16;;;18.94;25.59
77159;BME280;66129;45.890;13.714;2023-04-06T12:14:23;101088.47;;;18.30;23.43
77159;BME280;66129;45.890;13.714;2023-04-06T12:16:48;101117.09;;;18.15;23.36
77159;BME280;66129;45.890;13.714;2023-04-06T12:19:14;101101.59;;;18.03;23.53
77159;BME280;66129;45.890;13.714;2023-04-06T12:21:40;101109.38;;;18.04;22.86
77159;BME280;66129;45.890;13.714;2023-04-06T12:24:06;101111.97;;;18.00;25.88
77159;BME280;66129;45.890;13.714;2023-04-06T12:26:32;101094.13;;;17.07;25.59
77159;BME280;66129;45.890;13.714;2023-04-06T12:28:59;101093.28;;;16.84;26.86
77159;BME280;66129;45.890;13.714;2023-04-06T12:31:32;101099.31;;;16.80;26.83
77159;BME280;66129;45.890;13.714;2023-04-06T12:33:58;101060.47;;;16.95;25.26
77159;BME280;66129;45.890;13.714;2023-04-06T12:36:23;101075.94;;;17.36;25.43
77159;BME280;66129;45.890;13.714;2023-04-06T12:38:50;101071.66;;;17.02;25.11
77159;BME280;66129;45.890;13.714;2023-04-06T12:41:17;101082.91;;;16.38;26.21
77159;BME280;66129;45.890;13.714;2023-04-06T12:43:43;101062.16;;;16.13;28.35
77159;BME280;66129;45.890;13.714;2023-04-06T12:46:09;101080.28;;;16.16;28.11
77159;BME280;66129;45.890;13.714;2023-04-06T12:48:35;101079.47;;;16.35;28.01
77159;BME280;66129;45.890;13.714;2023-04-06T12:51:03;101068.25;;;16.70;27.52